createdAt,value
2023-05-24T00:02:16.115Z,16.27
2023-05-24T00:04:45.121Z,16.25
2023-05-24T00:07:12.571Z,16.23
2023-05-24T00:09:39.465Z,16.23
2023-05-24T00:12:06.512Z,16.24
2023-05-24T00:14:33.311Z,16.23
2023-05-24T00:17:00.342Z,16.20
2023-05-24T00:19:27.484Z,16.12
2023-05-24T00:21:54.379Z,16.04
2023-05-24T00:24:21.200Z,16.28
2023-05-24T00:26:48.573Z,16.26
2023-05-24T00:29:15.489Z,16.29
2023-05-24T00:31:42.501Z,16.24
2023-05-24T00:34:09.395Z,16.23
2023-05-24T00:36:38.147Z,16.30
2023-05-24T00:39:05.170Z,16.23
2023-05-24T00:41:32.011Z,16.23
2023-05-24T00:43:58.848Z,16.32
2023-05-24T00:46:32.551Z,16.18
2023-05-24T00:49:01.521Z,16.33
2023-05-24T00:51:28.818Z,16.25
2023-05-24T00:53:56.228Z,16.21
2023-05-24T00:56:23.394Z,16.21
2023-05-24T00:58:54.636Z,16.29
2023-05-24T01:01:25.685Z,16.24
2023-05-24T01:03:54.454Z,16.33
2023-05-24T01:06:23.445Z,16.34
2023-05-24T01:09:17.559Z,16.30
2023-05-24T01:11:50.332Z,16.34
2023-05-24T01:14:21.316Z,16.33
2023-05-24T01:17:04.458Z,16.34
2023-05-24T01:20:02.138Z,16.33
2023-05-24T01:22:53.396Z,16.34
2023-05-24T01:25:45.416Z,16.34
2023-05-24T01:28:13.057Z,16.34
2023-05-24T01:30:41.912Z,16.35
2023-05-24T01:33:09.877Z,16.33
2023-05-24T01:35:40.352Z,16.23
2023-05-24T01:38:08.452Z,16.27
2023-05-24T01:40:35.922Z,16.30
2023-05-24T01:43:18.686Z,16.28
2023-05-24T01:46:09.103Z,16.30
2023-05-24T01:49:21.877Z,16.28
2023-05-24T01:51:59.340Z,16.26
2023-05-24T01:54:28.573Z,16.24
2023-05-24T01:56:57.485Z,16.25
2023-05-24T01:59:26.515Z,16.22
2023-05-24T02:01:53.561Z,16.24
2023-05-24T02:04:20.517Z,16.25
2023-05-24T02:06:47.334Z,16.24
2023-05-24T02:09:14.242Z,16.20
2023-05-24T02:11:41.067Z,16.21
2023-05-24T02:14:07.923Z,16.10
2023-05-24T02:16:34.833Z,16.25
2023-05-24T02:19:01.733Z,16.17
2023-05-24T02:21:28.829Z,16.20
2023-05-24T02:23:55.653Z,16.01
2023-05-24T02:26:22.474Z,16.00
2023-05-24T02:28:49.483Z,16.17
2023-05-24T02:31:16.648Z,16.03
2023-05-24T02:33:43.599Z,16.09
2023-05-24T02:36:10.900Z,15.93
2023-05-24T02:38:37.792Z,16.06
2023-05-24T02:41:04.617Z,16.01
2023-05-24T02:43:31.455Z,16.01
2023-05-24T02:45:58.400Z,15.95
2023-05-24T02:48:25.425Z,15.96
2023-05-24T02:50:52.282Z,15.92
2023-05-24T02:53:19.114Z,15.88
2023-05-24T02:55:46.680Z,15.89
2023-05-24T02:58:13.603Z,15.86
2023-05-24T03:00:40.519Z,15.85
2023-05-24T03:03:07.748Z,15.82
2023-05-24T03:05:34.713Z,15.80
2023-05-24T03:08:01.679Z,15.77
2023-05-24T03:10:28.524Z,15.75
2023-05-24T03:12:55.397Z,15.77
2023-05-24T03:15:22.318Z,15.74
2023-05-24T03:17:49.345Z,15.69
2023-05-24T03:20:17.504Z,15.71
2023-05-24T03:22:44.581Z,15.67
2023-05-24T03:25:11.435Z,15.67
2023-05-24T03:27:38.313Z,15.59
2023-05-24T03:30:06.655Z,15.55
2023-05-24T03:32:33.679Z,15.56
2023-05-24T03:35:01.557Z,15.52
2023-05-24T03:37:28.510Z,15.49
2023-05-24T03:39:55.500Z,15.48
2023-05-24T03:42:22.546Z,15.40
2023-05-24T03:44:49.410Z,15.48
2023-05-24T03:47:16.595Z,15.47
2023-05-24T03:49:43.472Z,15.41
2023-05-24T03:52:10.320Z,15.48
2023-05-24T03:54:37.164Z,15.38
2023-05-24T03:57:04.202Z,15.43
2023-05-24T03:59:31.156Z,15.40
2023-05-24T04:01:58.063Z,15.31
2023-05-24T04:04:25.124Z,15.38
2023-05-24T04:06:54.044Z,15.27
2023-05-24T04:09:22.864Z,15.30
2023-05-24T04:11:49.953Z,15.20
2023-05-24T04:14:17.148Z,15.14
2023-05-24T04:16:45.148Z,15.15
2023-05-24T04:19:12.244Z,15.25
2023-05-24T04:21:39.219Z,15.20
2023-05-24T04:24:06.448Z,15.11
2023-05-24T04:26:34.704Z,15.06
2023-05-24T04:29:01.712Z,15.08
2023-05-24T04:31:30.437Z,15.21
2023-05-24T04:33:59.372Z,15.21
2023-05-24T04:36:26.419Z,15.20
2023-05-24T04:38:53.813Z,15.18
2023-05-24T04:41:22.407Z,15.17
2023-05-24T04:43:50.323Z,15.10
2023-05-24T04:46:17.286Z,15.01
2023-05-24T04:48:44.664Z,15.11
2023-05-24T04:51:11.887Z,15.16
2023-05-24T04:53:38.848Z,15.09
2023-05-24T04:56:05.743Z,15.14
2023-05-24T04:58:33.400Z,15.11
2023-05-24T05:01:00.602Z,15.18
2023-05-24T05:03:34.035Z,15.07
2023-05-24T05:06:01.070Z,14.98
2023-05-24T05:08:28.796Z,15.14
2023-05-24T05:10:56.626Z,15.10
2023-05-24T05:13:23.546Z,15.19
2023-05-24T05:15:50.528Z,15.19
2023-05-24T05:18:17.785Z,15.11
2023-05-24T05:20:45.158Z,15.12
2023-05-24T05:23:12.266Z,15.04
2023-05-24T05:25:39.105Z,14.99
2023-05-24T05:28:06.163Z,15.03
2023-05-24T05:30:34.220Z,14.99
2023-05-24T05:33:02.708Z,14.88
2023-05-24T05:35:32.909Z,14.94
2023-05-24T05:38:00.318Z,15.01
2023-05-24T05:40:36.483Z,14.98
2023-05-24T05:43:04.936Z,15.03
2023-05-24T05:45:32.151Z,15.00
2023-05-24T05:47:59.096Z,15.00
2023-05-24T05:50:26.079Z,14.93
2023-05-24T05:52:54.347Z,14.91
2023-05-24T05:55:21.279Z,14.89
2023-05-24T05:57:48.227Z,14.95
2023-05-24T06:00:15.649Z,14.86
2023-05-24T06:02:42.638Z,14.91
2023-05-24T06:05:09.612Z,14.88
2023-05-24T06:07:37.517Z,14.86
2023-05-24T06:10:04.785Z,14.78
2023-05-24T06:12:32.634Z,14.80
2023-05-24T06:14:59.814Z,14.91
2023-05-24T06:17:28.122Z,14.86
2023-05-24T06:19:55.895Z,14.87
2023-05-24T06:22:23.603Z,14.90
2023-05-24T06:24:50.513Z,14.86
2023-05-24T06:27:17.541Z,14.89
2023-05-24T06:29:44.723Z,14.88
2023-05-24T06:32:12.049Z,14.84
2023-05-24T06:34:38.966Z,14.85
2023-05-24T06:37:05.936Z,14.93
2023-05-24T06:39:32.779Z,14.94
2023-05-24T06:41:59.652Z,14.96
2023-05-24T06:44:33.540Z,14.94
2023-05-24T06:47:05.743Z,14.98
2023-05-24T06:49:32.877Z,15.02
2023-05-24T06:51:59.864Z,15.04
2023-05-24T06:54:26.761Z,15.03
2023-05-24T06:56:53.849Z,15.00
2023-05-24T06:59:20.774Z,15.03
2023-05-24T07:01:49.488Z,14.99
2023-05-24T07:04:16.553Z,15.09
2023-05-24T07:06:43.746Z,15.11
2023-05-24T07:09:10.654Z,15.13
2023-05-24T07:11:37.687Z,15.03
2023-05-24T07:14:04.707Z,15.09
2023-05-24T07:16:31.909Z,15.15
2023-05-24T07:18:58.919Z,15.09
2023-05-24T07:21:26.034Z,15.07
2023-05-24T07:23:53.309Z,15.10
2023-05-24T07:26:20.686Z,15.20
2023-05-24T07:28:48.205Z,15.22
2023-05-24T07:31:15.243Z,15.24
2023-05-24T07:33:42.432Z,15.21
2023-05-24T07:36:09.674Z,15.19
2023-05-24T07:38:38.995Z,15.13
2023-05-24T07:41:07.351Z,15.06
2023-05-24T07:43:34.340Z,15.10
2023-05-24T07:46:01.300Z,15.07
2023-05-24T07:48:28.458Z,15.07
2023-05-24T07:50:55.337Z,15.06
2023-05-24T07:53:23.350Z,15.06
2023-05-24T07:55:50.813Z,14.96
2023-05-24T07:58:17.679Z,14.86
2023-05-24T08:00:46.725Z,14.92
2023-05-24T08:03:14.856Z,14.96
2023-05-24T08:05:42.183Z,14.90
2023-05-24T08:08:09.765Z,14.97
2023-05-24T08:10:36.895Z,14.99
2023-05-24T08:13:05.187Z,15.02
2023-05-24T08:15:32.054Z,15.03
2023-05-24T08:17:59.039Z,15.01
2023-05-24T08:20:25.975Z,15.01
2023-05-24T08:22:52.818Z,14.99
2023-05-24T08:25:19.984Z,15.09
2023-05-24T08:27:46.898Z,15.10
2023-05-24T08:30:14.232Z,15.10
2023-05-24T08:32:41.432Z,15.09
2023-05-24T08:35:20.440Z,15.07
2023-05-24T08:37:49.263Z,15.10
2023-05-24T08:40:17.018Z,15.12
2023-05-24T08:42:46.329Z,15.09
2023-05-24T08:45:15.870Z,15.07
2023-05-24T08:47:43.421Z,15.06
2023-05-24T08:50:11.157Z,15.09
2023-05-24T08:52:39.848Z,15.03
2023-05-24T08:55:07.817Z,15.08
2023-05-24T08:57:39.993Z,15.07
2023-05-24T09:00:14.142Z,15.13
2023-05-24T09:02:43.243Z,15.15
2023-05-24T09:05:14.360Z,15.12
2023-05-24T09:07:44.972Z,15.19
2023-05-24T09:10:13.364Z,15.20
2023-05-24T09:12:45.795Z,15.05
2023-05-24T09:15:13.213Z,15.11
2023-05-24T09:17:43.679Z,15.21
2023-05-24T09:20:11.799Z,15.23
2023-05-24T09:22:42.833Z,15.21
2023-05-24T09:25:14.098Z,15.28
2023-05-24T09:27:41.486Z,15.32
2023-05-24T09:30:13.068Z,15.26
2023-05-24T09:32:40.320Z,15.33
2023-05-24T09:35:10.874Z,15.29
2023-05-24T09:37:41.745Z,15.32
2023-05-24T09:40:20.070Z,15.36
2023-05-24T09:42:47.605Z,15.37
2023-05-24T09:45:15.088Z,15.18
2023-05-24T09:47:45.474Z,15.30
2023-05-24T09:50:20.191Z,15.38
2023-05-24T09:52:47.478Z,15.38
2023-05-24T09:55:20.209Z,15.36
2023-05-24T09:58:13.148Z,15.38
2023-05-24T10:00:42.692Z,15.35
2023-05-24T10:03:12.384Z,15.35
2023-05-24T10:05:46.738Z,15.33
2023-05-24T10:08:14.721Z,15.33
2023-05-24T10:10:42.723Z,15.30
2023-05-24T10:13:11.557Z,15.33
2023-05-24T10:15:38.587Z,15.36
2023-05-24T10:18:11.392Z,15.37
2023-05-24T10:20:41.864Z,15.37
2023-05-24T10:23:11.175Z,15.38
2023-05-24T10:25:50.151Z,15.39
2023-05-24T10:28:18.511Z,15.32
2023-05-24T10:31:01.990Z,15.37
2023-05-24T10:33:31.356Z,15.40
2023-05-24T10:35:59.008Z,15.26
2023-05-24T10:38:25.928Z,15.42
2023-05-24T10:40:54.422Z,15.41
2023-05-24T10:43:23.603Z,15.38
2023-05-24T10:45:51.167Z,15.38
2023-05-24T10:48:32.875Z,15.31
2023-05-24T10:51:04.121Z,15.39
2023-05-24T10:53:40.205Z,15.37
2023-05-24T10:56:09.700Z,15.44
2023-05-24T10:59:02.332Z,15.41
2023-05-24T11:01:32.401Z,15.41
2023-05-24T11:04:26.521Z,15.39
2023-05-24T11:07:03.664Z,15.36
2023-05-24T11:09:31.846Z,15.19
2023-05-24T11:12:08.903Z,15.18
2023-05-24T11:14:40.104Z,15.22
2023-05-24T11:17:08.275Z,15.30
2023-05-24T11:19:48.333Z,15.32
2023-05-24T11:22:15.663Z,15.28
2023-05-24T11:24:44.509Z,15.30
2023-05-24T11:27:13.637Z,15.29
2023-05-24T11:29:45.460Z,15.24
2023-05-24T11:32:21.051Z,15.24
2023-05-24T11:34:49.081Z,15.13
2023-05-24T11:37:17.953Z,15.25
2023-05-24T11:39:53.009Z,15.25
2023-05-24T11:42:22.712Z,15.25
2023-05-24T11:44:50.317Z,15.24
2023-05-24T11:47:17.140Z,15.21
2023-05-24T11:49:44.011Z,15.23
2023-05-24T11:52:10.909Z,15.24
2023-05-24T11:54:38.872Z,15.28
2023-05-24T11:57:06.112Z,15.30
2023-05-24T11:59:33.206Z,15.31
2023-05-24T12:02:04.402Z,15.30
2023-05-24T12:04:33.092Z,15.32
2023-05-24T12:07:01.560Z,15.18
2023-05-24T12:09:28.683Z,15.34
2023-05-24T12:11:56.008Z,15.30
2023-05-24T12:14:30.923Z,15.41
2023-05-24T12:16:58.757Z,15.46
2023-05-24T12:19:33.786Z,15.43
2023-05-24T12:22:09.174Z,15.49
2023-05-24T12:24:38.103Z,15.46
2023-05-24T12:27:09.756Z,15.47
2023-05-24T12:29:40.477Z,15.50
2023-05-24T12:32:13.563Z,15.48
2023-05-24T12:34:45.526Z,15.58
2023-05-24T12:37:13.787Z,15.65
2023-05-24T12:39:43.568Z,15.77
2023-05-24T12:42:12.730Z,15.76
2023-05-24T12:44:40.271Z,15.81
2023-05-24T12:47:08.978Z,15.82
2023-05-24T12:49:36.577Z,15.82
2023-05-24T12:52:03.932Z,15.79
2023-05-24T12:54:31.499Z,15.86
2023-05-24T12:57:00.582Z,15.92
2023-05-24T12:59:28.543Z,15.91
2023-05-24T13:01:56.000Z,16.02
2023-05-24T13:04:26.509Z,16.05
2023-05-24T13:06:55.079Z,15.94
2023-05-24T13:09:23.316Z,16.13
2023-05-24T13:11:51.084Z,16.10
2023-05-24T13:14:19.609Z,16.20
2023-05-24T13:16:47.002Z,16.28
2023-05-24T13:19:14.040Z,16.26
2023-05-24T13:21:41.076Z,16.26
2023-05-24T13:24:08.678Z,16.44
2023-05-24T13:26:38.926Z,16.44
2023-05-24T13:31:38.447Z,16.53
2023-05-24T13:34:06.467Z,16.52
2023-05-24T13:36:34.504Z,16.53
2023-05-24T13:39:14.975Z,16.55
2023-05-24T13:41:43.786Z,16.62
2023-05-24T13:44:14.692Z,16.66
2023-05-24T13:46:42.979Z,16.77
2023-05-24T13:49:10.978Z,16.65
2023-05-24T13:51:38.667Z,16.76
2023-05-24T13:54:07.523Z,16.82
2023-05-24T13:56:35.136Z,16.82
2023-05-24T13:59:03.660Z,16.81
2023-05-24T14:01:31.945Z,16.82
2023-05-24T14:04:00.791Z,16.98
2023-05-24T14:06:27.957Z,16.97
2023-05-24T14:08:54.876Z,17.05
2023-05-24T14:11:22.601Z,17.06
2023-05-24T14:16:19.484Z,17.15
2023-05-24T14:18:48.905Z,17.12
2023-05-24T14:21:16.306Z,17.12
2023-05-24T14:23:43.151Z,17.20
2023-05-24T14:26:10.092Z,17.38
2023-05-24T14:28:36.955Z,17.33
2023-05-24T14:31:03.856Z,17.35
2023-05-24T14:33:31.827Z,17.40
2023-05-24T14:35:58.875Z,17.47
2023-05-24T14:38:25.981Z,17.31
2023-05-24T14:40:53.054Z,17.28
2023-05-24T14:43:20.105Z,17.36
2023-05-24T14:45:47.558Z,17.33
2023-05-24T14:48:16.656Z,17.35
2023-05-24T14:50:43.988Z,17.28
2023-05-24T14:53:12.522Z,17.35
2023-05-24T14:55:42.171Z,17.29
2023-05-24T14:58:11.518Z,17.20
2023-05-24T15:00:39.125Z,17.44
2023-05-24T15:03:07.915Z,17.47
2023-05-24T15:05:36.270Z,17.40
2023-05-24T15:08:04.476Z,17.36
2023-05-24T15:10:32.817Z,17.48
2023-05-24T15:13:00.823Z,17.59
2023-05-24T15:15:28.472Z,17.43
2023-05-24T15:17:55.551Z,17.54
2023-05-24T15:20:22.699Z,17.51
2023-05-24T15:22:49.615Z,17.44
2023-05-24T15:25:17.602Z,17.36
2023-05-24T15:27:44.468Z,17.24
2023-05-24T15:30:11.911Z,17.40
2023-05-24T15:32:38.778Z,17.52
2023-05-24T15:35:06.906Z,17.48
2023-05-24T15:37:33.730Z,17.52
2023-05-24T15:40:00.787Z,17.54
2023-05-24T15:42:30.509Z,17.63
2023-05-24T15:44:57.382Z,17.64
2023-05-24T15:47:29.021Z,17.54
2023-05-24T15:49:57.012Z,17.44
2023-05-24T15:52:24.160Z,17.44
2023-05-24T15:54:51.155Z,17.34
2023-05-24T15:57:18.054Z,17.39
2023-05-24T15:59:44.923Z,17.43
2023-05-24T16:02:12.024Z,17.43
2023-05-24T16:04:39.479Z,17.38
2023-05-24T16:07:07.353Z,17.31
2023-05-24T16:09:34.292Z,17.33
2023-05-24T16:12:02.766Z,17.48
2023-05-24T16:14:29.981Z,17.53
2023-05-24T16:16:59.013Z,17.59
2023-05-24T16:19:26.849Z,17.67
2023-05-24T16:21:55.102Z,17.56
2023-05-24T16:24:22.175Z,17.62
2023-05-24T16:26:49.281Z,17.64
2023-05-24T16:29:18.002Z,17.54
2023-05-24T16:31:44.935Z,17.65
2023-05-24T16:34:11.918Z,17.67
2023-05-24T16:36:40.086Z,17.66
2023-05-24T16:39:07.164Z,17.83
2023-05-24T16:41:37.743Z,17.84
2023-05-24T16:44:05.159Z,17.84
2023-05-24T16:46:32.769Z,17.82
2023-05-24T16:49:08.943Z,17.83
2023-05-24T16:51:36.941Z,17.79
2023-05-24T16:54:08.267Z,17.81
2023-05-24T16:56:38.635Z,17.78
2023-05-24T16:59:07.548Z,17.69
2023-05-24T17:01:34.778Z,17.71
2023-05-24T17:04:01.858Z,17.69
2023-05-24T17:06:28.830Z,17.69
2023-05-24T17:08:55.817Z,17.67
2023-05-24T17:11:23.074Z,17.83
2023-05-24T17:13:51.441Z,17.86
2023-05-24T17:16:18.713Z,17.78
2023-05-24T17:18:45.738Z,17.75
2023-05-24T17:21:12.767Z,17.73
2023-05-24T17:23:39.784Z,17.76
2023-05-24T17:26:08.218Z,17.76
2023-05-24T17:28:36.155Z,17.73
2023-05-24T17:31:03.730Z,17.71
2023-05-24T17:33:31.712Z,17.82
2023-05-24T17:36:02.715Z,17.62
2023-05-24T17:38:33.022Z,17.77
2023-05-24T17:41:00.241Z,17.75
2023-05-24T17:43:32.731Z,17.71
2023-05-24T17:46:06.827Z,17.66
2023-05-24T17:48:42.743Z,17.64
2023-05-24T17:51:10.699Z,17.62
2023-05-24T17:53:38.363Z,17.59
2023-05-24T17:56:06.683Z,17.55
2023-05-24T17:58:36.064Z,17.53
2023-05-24T18:01:08.305Z,17.50
2023-05-24T18:03:37.161Z,17.58
2023-05-24T18:06:06.591Z,17.42
2023-05-24T18:08:35.185Z,17.42
2023-05-24T18:11:07.904Z,17.45
2023-05-24T18:13:36.584Z,17.40
2023-05-24T18:16:03.576Z,17.38
2023-05-24T18:18:30.770Z,17.40
2023-05-24T18:20:57.659Z,17.23
2023-05-24T18:23:24.603Z,17.32
2023-05-24T18:26:01.737Z,17.32
2023-05-24T18:28:30.239Z,17.33
2023-05-24T18:30:57.085Z,17.12
2023-05-24T18:33:24.464Z,17.27
2023-05-24T18:35:51.416Z,17.29
2023-05-24T18:38:18.276Z,17.24
2023-05-24T18:40:45.229Z,17.26
2023-05-24T18:43:12.630Z,17.20
2023-05-24T18:45:39.489Z,17.25
2023-05-24T18:48:06.723Z,17.18
2023-05-24T18:50:34.014Z,17.18
2023-05-24T18:53:01.071Z,17.13
2023-05-24T18:55:28.820Z,17.10
2023-05-24T18:57:55.997Z,16.99
2023-05-24T19:00:23.017Z,17.06
2023-05-24T19:02:50.277Z,16.95
2023-05-24T19:05:17.250Z,17.00
2023-05-24T19:07:44.116Z,16.96
2023-05-24T19:10:11.486Z,16.95
2023-05-24T19:12:38.308Z,16.91
2023-05-24T19:15:06.039Z,16.89
2023-05-24T19:17:33.171Z,16.88
2023-05-24T19:20:01.416Z,16.83
2023-05-24T19:22:28.367Z,16.70
2023-05-24T19:24:56.244Z,16.51
2023-05-24T19:27:24.517Z,16.62
2023-05-24T19:29:51.493Z,16.64
2023-05-24T19:32:20.241Z,16.60
2023-05-24T19:34:47.337Z,16.47
2023-05-24T19:37:15.703Z,16.23
2023-05-24T19:39:42.613Z,15.86
2023-05-24T19:42:11.574Z,15.80
2023-05-24T19:44:38.378Z,15.89
2023-05-24T19:47:05.756Z,15.94
2023-05-24T19:49:32.645Z,16.08
2023-05-24T19:51:59.550Z,16.13
2023-05-24T19:54:26.418Z,16.12
2023-05-24T19:56:55.089Z,16.16
2023-05-24T19:59:21.980Z,16.15
2023-05-24T20:01:48.903Z,16.14
2023-05-24T20:04:15.925Z,16.14
2023-05-24T20:06:42.967Z,16.17
2023-05-24T20:09:09.822Z,16.16
2023-05-24T20:11:36.672Z,16.15
2023-05-24T20:14:03.597Z,16.17
2023-05-24T20:16:31.254Z,16.07
2023-05-24T20:18:58.324Z,16.11
2023-05-24T20:21:25.208Z,16.05
2023-05-24T20:23:57.775Z,16.10
2023-05-24T20:26:25.415Z,16.09
2023-05-24T20:28:52.409Z,15.96
2023-05-24T20:31:19.504Z,15.85
2023-05-24T20:33:46.618Z,15.83
2023-05-24T20:36:15.000Z,15.77
2023-05-24T20:38:42.020Z,15.74
2023-05-24T20:41:08.962Z,15.71
2023-05-24T20:43:35.877Z,15.71
2023-05-24T20:46:03.644Z,15.67
2023-05-24T20:48:30.665Z,15.63
2023-05-24T20:50:57.717Z,15.56
2023-05-24T20:53:24.580Z,15.58
2023-05-24T20:55:51.568Z,15.49
2023-05-24T20:58:18.551Z,15.44
2023-05-24T21:00:45.949Z,15.39
2023-05-24T21:03:13.175Z,15.37
2023-05-24T21:05:40.341Z,15.27
2023-05-24T21:08:07.362Z,15.28
2023-05-24T21:10:34.338Z,15.15
2023-05-24T21:13:01.197Z,15.17
2023-05-24T21:15:28.015Z,15.17
2023-05-24T21:17:55.058Z,15.16
2023-05-24T21:20:22.200Z,15.17
2023-05-24T21:22:49.250Z,15.00
2023-05-24T21:25:16.322Z,15.14
2023-05-24T21:27:43.199Z,15.16
2023-05-24T21:30:10.754Z,15.16
2023-05-24T21:32:37.717Z,15.14
2023-05-24T21:35:05.186Z,15.10
2023-05-24T21:37:32.089Z,15.11
2023-05-24T21:39:59.049Z,15.17
2023-05-24T21:42:26.003Z,15.12
2023-05-24T21:44:52.923Z,15.09
2023-05-24T21:47:19.833Z,15.10
2023-05-24T21:49:46.721Z,15.07
2023-05-24T21:52:13.694Z,15.08
2023-05-24T21:54:40.645Z,15.08
2023-05-24T21:57:07.551Z,15.07
2023-05-24T21:59:34.389Z,15.11
2023-05-24T22:02:01.488Z,14.97
2023-05-24T22:04:28.396Z,15.02
2023-05-24T22:06:55.382Z,15.14
2023-05-24T22:09:22.332Z,15.05
2023-05-24T22:11:49.361Z,15.04
2023-05-24T22:14:16.258Z,14.96
2023-05-24T22:16:43.217Z,14.97
2023-05-24T22:19:13.527Z,15.09
2023-05-24T22:21:42.762Z,15.08
2023-05-24T22:24:10.165Z,15.08
2023-05-24T22:26:37.276Z,14.92
2023-05-24T22:29:04.614Z,15.04
2023-05-24T22:31:33.487Z,15.03
2023-05-24T22:34:02.437Z,15.07
2023-05-24T22:36:33.355Z,15.05
2023-05-24T22:39:03.962Z,14.57
2023-05-24T22:41:33.333Z,14.44
2023-05-24T22:44:00.326Z,14.67
2023-05-24T22:46:27.400Z,14.75
2023-05-24T22:48:56.605Z,14.62
2023-05-24T22:51:23.950Z,14.81
2023-05-24T22:53:52.656Z,14.88
2023-05-24T22:56:19.682Z,14.87
2023-05-24T22:58:46.843Z,14.86
2023-05-24T23:01:15.569Z,14.85
2023-05-24T23:03:42.715Z,14.86
2023-05-24T23:06:11.951Z,14.80
2023-05-24T23:08:39.474Z,14.89
2023-05-24T23:11:13.118Z,14.80
2023-05-24T23:13:42.248Z,14.84
2023-05-24T23:16:09.340Z,14.82
2023-05-24T23:18:37.715Z,14.72
2023-05-24T23:21:04.782Z,14.69
2023-05-24T23:23:31.686Z,14.75
2023-05-24T23:25:58.511Z,14.62
2023-05-24T23:28:25.439Z,14.63
2023-05-24T23:30:53.567Z,14.57
2023-05-24T23:33:20.761Z,14.56
2023-05-24T23:35:47.831Z,14.57
2023-05-24T23:38:15.972Z,14.51
2023-05-24T23:40:43.238Z,14.43
2023-05-24T23:43:10.077Z,14.39
2023-05-24T23:45:36.994Z,14.47
2023-05-24T23:48:04.145Z,14.44
2023-05-24T23:50:37.315Z,14.22
2023-05-24T23:53:09.952Z,14.28
2023-05-24T23:55:36.895Z,14.19
2023-05-24T23:58:03.774Z,14.18
